Time;durP1;ratioP1;P1;durP2;ratioP2;P2;SDS_P1;SDS_P2;PMS_P1;PMS_P2;Temp;Humidity;BMP_temperature;BMP_pressure;BME280_temperature;BME280_humidity;BME280_pressure;Samples;Min_cycle;Max_cycle;Signal;HPM_P1;HPM_P2
2023/07/15 15:02:20;;;;;;;20.55;8.40;;;;;;;37.64;25.65;98754.75;5353028;23;20063;-75
2023/07/15 15:04:46;;;;;;;117.25;66.57;;;;;;;37.60;26.18;98756.44;4930327;29;20055;-78
2023/07/15 15:07:11;;;;;;;21.75;9.15;;;;;;;37.57;25.10;98755.09;4923709;29;20052;-77
2023/07/15 15:09:37;;;;;;;12.30;5.47;;;;;;;37.52;23.55;98759.84;4920828;29;20422;-76
2023/07/15 15:12:02;;;;;;;11.10;4.32;;;;;;;37.39;25.14;98748.56;4920145;29;20052;-80
2023/07/15 15:14:28;;;;;;;11.10;3.50;;;;;;;37.28;25.08;98750.63;4920671;29;20520;-80
2023/07/15 15:16:53;;;;;;;8.32;3.60;;;;;;;37.18;25.02;98755.34;4955422;29;20055;-78
2023/07/15 15:19:19;;;;;;;10.77;3.58;;;;;;;37.07;25.47;98760.94;4942393;29;20031;-75
2023/07/15 15:21:44;;;;;;;9.70;3.78;;;;;;;36.92;25.46;98758.41;4925189;29;20044;-75
2023/07/15 15:24:11;;;;;;;8.43;3.50;;;;;;;36.78;24.85;98757.50;4935710;29;20031;-78
2023/07/15 15:26:37;;;;;;;6.40;3.33;;;;;;;36.65;25.40;98762.50;4922585;29;20071;-79
2023/07/15 15:29:02;;;;;;;14.45;4.03;;;;;;;36.59;25.41;98766.34;4899169;29;20113;-79
2023/07/15 15:31:28;;;;;;;8.77;3.70;;;;;;;36.50;25.96;98760.75;4904732;29;20043;-78
2023/07/15 15:33:56;;;;;;;10.73;3.90;;;;;;;36.40;26.22;98766.28;4916924;29;20047;-79
2023/07/15 15:36:24;;;;;;;14.00;3.92;;;;;;;36.23;26.11;98764.78;4932246;29;20047;-77
2023/07/15 15:38:50;;;;;;;8.88;3.75;;;;;;;36.18;26.16;98772.16;4944458;28;20315;-78
2023/07/15 15:41:16;;;;;;;8.05;3.53;;;;;;;36.08;26.13;98759.47;4928404;29;20529;-76
2023/07/15 15:43:41;;;;;;;15.68;3.60;;;;;;;36.05;25.96;98777.16;4930318;29;20050;-75
2023/07/15 15:46:07;;;;;;;8.95;3.72;;;;;;;36.01;26.08;98770.69;4927874;29;20060;-75
2023/07/15 15:48:32;;;;;;;7.80;3.45;;;;;;;35.96;25.84;98764.47;4928892;29;20035;-77
2023/07/15 15:50:58;;;;;;;9.15;3.63;;;;;;;35.92;26.39;98774.28;4931950;29;20126;-77
2023/07/15 15:53:23;;;;;;;10.90;3.80;;;;;;;35.87;26.26;98772.41;4945096;28;20482;-78
2023/07/15 15:55:49;;;;;;;12.07;3.70;;;;;;;35.83;26.32;98772.16;4936326;29;20130;-79
2023/07/15 15:58:14;;;;;;;7.35;3.75;;;;;;;35.86;26.82;98774.31;4924585;29;20043;-77
2023/07/15 16:00:43;;;;;;;9.68;4.15;;;;;;;35.82;26.63;98769.72;4953247;29;20039;-88
2023/07/15 16:03:09;;;;;;;13.88;3.90;;;;;;;35.76;26.22;98773.59;4929608;29;20050;-78
2023/07/15 16:05:35;;;;;;;10.93;4.20;;;;;;;35.75;24.78;98774.66;4916352;29;20042;-83
2023/07/15 16:08:00;;;;;;;11.57;3.88;;;;;;;35.60;25.03;98773.66;4937556;29;20039;-83
2023/07/15 16:10:26;;;;;;;8.23;4.13;;;;;;;35.51;24.37;98775.34;4921812;29;20031;-81
2023/07/15 16:12:51;;;;;;;9.95;3.70;;;;;;;35.43;25.79;98784.06;4921781;29;20074;-80
2023/07/15 16:15:17;;;;;;;11.45;3.80;;;;;;;35.35;25.86;98788.19;4921396;29;20035;-82
2023/07/15 16:17:42;;;;;;;9.02;3.70;;;;;;;35.26;25.11;98779.00;4916553;29;20042;-79
2023/07/15 16:20:08;;;;;;;9.05;3.60;;;;;;;35.18;24.30;98776.84;4944271;29;20024;-78
2023/07/15 16:22:34;;;;;;;10.10;3.58;;;;;;;35.05;26.87;98781.75;4919121;29;20040;-83
2023/07/15 16:24:59;;;;;;;10.93;3.30;;;;;;;35.02;26.59;98792.38;4902166;29;20074;-81
2023/07/15 16:27:25;;;;;;;8.20;3.30;;;;;;;34.91;26.63;98783.44;4918756;29;20526;-80
2023/07/15 16:29:50;;;;;;;9.02;3.40;;;;;;;34.83;25.55;98784.81;4902402;29;20059;-81
2023/07/15 16:32:16;;;;;;;7.32;3.25;;;;;;;34.78;24.04;98788.34;4918729;29;20493;-82
2023/07/15 16:34:42;;;;;;;7.35;3.10;;;;;;;34.73;24.87;98788.34;4933381;29;20039;-81
2023/07/15 16:37:07;;;;;;;8.38;3.35;;;;;;;34.66;25.68;98790.50;4900987;29;20130;-82
2023/07/15 16:39:33;;;;;;;9.23;3.60;;;;;;;34.61;25.46;98794.03;4901733;29;20069;-81
2023/07/15 16:42:00;;;;;;;7.97;3.13;;;;;;;34.58;25.26;98785.66;4903260;29;20062;-84
2023/07/15 16:44:26;;;;;;;;;;;;;;;34.54;25.36;98790.81;4918396;29;20398;-84
2023/07/15 16:46:51;;;;;;;7.32;3.20;;;;;;;34.46;25.15;98799.50;4933685;29;19919;-84
2023/07/15 16:49:17;;;;;;;7.88;3.08;;;;;;;34.40;26.42;98792.47;4917969;29;20046;-85
2023/07/15 16:51:42;;;;;;;5.78;3.20;;;;;;;34.37;26.58;98798.44;4901632;29;20427;-84
2023/07/15 16:54:08;;;;;;;11.60;3.30;;;;;;;34.33;25.77;98803.59;4901917;29;20035;-84
2023/07/15 16:56:34;;;;;;;5.88;3.25;;;;;;;34.28;25.71;98798.16;4901368;29;20406;-83
2023/07/15 16:59:00;;;;;;;7.05;3.60;;;;;;;34.22;26.67;98801.91;4900879;29;20052;-83
2023/07/15 17:01:25;;;;;;;11.05;3.60;;;;;;;34.17;26.46;98808.13;4901590;29;20119;-84
2023/07/15 17:03:51;;;;;;;10.90;3.72;;;;;;;34.14;29.64;98819.50;4908591;29;20565;-78
2023/07/15 17:06:16;;;;;;;11.13;3.30;;;;;;;34.10;28.34;98823.88;4907807;29;20045;-90
2023/07/15 17:08:42;;;;;;;10.43;3.38;;;;;;;33.99;29.38;98817.63;4922299;29;20043;-81
2023/07/15 17:11:07;;;;;;;8.20;3.30;;;;;;;33.94;29.19;98822.19;4923572;29;20027;-80
2023/07/15 17:13:33;;;;;;;7.72;2.90;;;;;;;33.91;28.89;98823.56;4953668;29;20071;-79
2023/07/15 17:15:59;;;;;;;7.20;2.90;;;;;;;33.80;30.17;98814.63;4937004;29;20106;-80
2023/07/15 17:18:24;;;;;;;6.13;2.58;;;;;;;33.71;28.44;98824.34;4936793;29;20039;-77
2023/07/15 17:20:52;;;;;;;6.82;2.70;;;;;;;33.68;30.14;98832.97;4936951;29;20028;-81
2023/07/15 17:23:18;;;;;;;5.63;2.38;;;;;;;33.61;30.46;98830.50;4920492;29;20039;-81
2023/07/15 17:25:44;;;;;;;7.50;2.50;;;;;;;33.53;30.66;98829.13;4918569;29;20517;-80
2023/07/15 17:28:09;;;;;;;7.65;2.83;;;;;;;33.49;30.86;98838.03;4916797;29;20134;-81
2023/07/15 17:30:35;;;;;;;5.85;2.30;;;;;;;33.40;30.66;98847.75;4901510;29;20103;-81
2023/07/15 17:33:01;;;;;;;7.82;2.67;;;;;;;33.34;31.76;98844.22;4902315;29;20495;-79
2023/07/15 17:35:27;;;;;;;7.70;2.92;;;;;;;33.24;31.46;98845.00;4917535;29;20046;-81
2023/07/15 17:37:53;;;;;;;6.43;2.90;;;;;;;33.19;30.30;98844.94;4902179;29;20419;-79
2023/07/15 17:40:18;;;;;;;9.52;2.80;;;;;;;33.17;31.47;98852.47;4935908;29;20023;-81
2023/07/15 17:42:44;;;;;;;8.85;3.00;;;;;;;33.11;31.04;98859.75;4920618;29;20533;-81
2023/07/15 17:45:10;;;;;;;12.13;2.70;;;;;;;33.05;31.87;98857.28;4904886;29;20055;-81
2023/07/15 17:47:36;;;;;;;7.32;2.88;;;;;;;32.96;31.91;98856.97;4917816;29;20469;-82
2023/07/15 17:50:03;;;;;;;8.10;2.45;;;;;;;32.90;29.73;98860.72;4900844;29;20104;-83
2023/07/15 17:52:29;;;;;;;7.35;2.65;;;;;;;32.84;31.13;98867.97;4921816;29;20066;-79
2023/07/15 17:54:54;;;;;;;6.65;2.40;;;;;;;32.75;29.97;98858.72;4921975;29;20518;-76
2023/07/15 17:57:20;;;;;;;6.82;2.28;;;;;;;32.78;31.43;98871.72;4898044;29;20126;-79
2023/07/15 17:59:45;;;;;;;11.15;2.40;;;;;;;32.76;30.71;98880.06;4898556;29;20130;-76
2023/07/15 18:02:11;;;;;;;6.65;2.38;;;;;;;32.70;31.17;98874.91;4883433;29;20076;-78
2023/07/15 18:04:37;;;;;;;12.50;2.42;;;;;;;32.69;31.32;98884.91;4900076;29;20043;-77
2023/07/15 18:07:03;;;;;;;4.25;2.20;;;;;;;32.64;30.17;98890.28;4897677;29;20178;-79
2023/07/15 18:09:29;;;;;;;3.92;1.98;;;;;;;32.59;28.93;98888.31;4948221;28;20052;-76
2023/07/15 18:11:54;;;;;;;5.20;2.20;;;;;;;32.59;30.17;98895.59;4916739;29;20384;-76
2023/07/15 18:14:20;;;;;;;7.85;2.30;;;;;;;32.50;31.43;98889.84;4900557;29;20046;-79
2023/07/15 18:16:45;;;;;;;4.60;2.20;;;;;;;32.46;30.92;98896.84;4917321;29;20047;-76
2023/07/15 18:19:11;;;;;;;4.57;2.25;;;;;;;32.42;30.05;98903.84;4905043;29;20039;-79
2023/07/15 18:21:36;;;;;;;7.78;2.60;;;;;;;32.36;30.26;98907.56;4903750;29;20474;-82
2023/07/15 18:24:02;;;;;;;10.20;2.22;;;;;;;32.36;30.50;98913.78;4919171;29;20058;-85
2023/07/15 18:26:28;;;;;;;8.57;2.45;;;;;;;32.29;31.57;98915.84;4920200;29;20035;-83
2023/07/15 18:28:53;;;;;;;7.00;2.28;;;;;;;32.28;30.82;98928.53;4936165;29;20066;-84
2023/07/15 18:31:19;;;;;;;11.07;2.30;;;;;;;32.23;31.99;98931.19;4921082;29;20403;-86
2023/07/15 18:33:44;;;;;;;5.95;2.30;;;;;;;32.18;32.62;98925.75;4885609;29;20035;-83
2023/07/15 18:36:10;;;;;;;5.65;2.20;;;;;;;32.15;31.68;98945.16;4895788;29;20032;-84
2023/07/15 18:38:36;;;;;;;6.53;2.50;;;;;;;32.02;32.54;98940.91;4911542;29;20051;-83
2023/07/15 18:41:01;;;;;;;10.65;2.20;;;;;;;32.01;31.82;98947.41;4930123;29;20039;-79
2023/07/15 18:43:27;;;;;;;6.53;2.40;;;;;;;31.98;32.21;98957.91;4919712;29;20118;-88
2023/07/15 18:45:53;;;;;;;9.73;2.35;;;;;;;31.96;32.16;98962.72;4906891;29;20043;-80
2023/07/15 18:48:19;;;;;;;5.50;2.25;;;;;;;31.96;31.78;98973.50;4922676;29;20110;-82
2023/07/15 18:50:44;;;;;;;5.72;2.28;;;;;;;31.88;32.31;98972.91;4911154;29;20126;-82
2023/07/15 18:53:10;;;;;;;8.48;2.42;;;;;;;31.87;33.16;98976.66;4919252;29;20122;-81
2023/07/15 18:55:36;;;;;;;7.65;1.90;;;;;;;31.81;32.29;98974.97;4919105;29;20071;-87
2023/07/15 18:58:01;;;;;;;8.23;2.20;;;;;;;31.76;32.71;98977.59;4916293;29;20067;-81
2023/07/15 19:00:27;;;;;;;7.47;2.33;;;;;;;31.72;31.93;98966.50;4915815;29;20048;-82
2023/07/15 19:02:52;;;;;;;5.60;2.20;;;;;;;31.67;33.13;98962.91;4927165;29;20082;-77
2023/07/15 19:05:18;;;;;;;9.32;2.00;;;;;;;31.66;32.50;98980.97;4914068;29;20418;-76
2023/07/15 19:07:44;;;;;;;4.45;2.28;;;;;;;31.60;31.24;98981.16;4900101;29;20110;-78
2023/07/15 19:10:10;;;;;;;4.78;1.92;;;;;;;31.54;33.34;98989.16;4884765;29;20044;-77
2023/07/15 19:12:36;;;;;;;4.93;2.00;;;;;;;31.44;33.01;98990.88;4884703;29;20032;-76
2023/07/15 19:15:02;;;;;;;9.05;2.10;;;;;;;31.42;34.34;98990.31;4905667;29;20421;-86
2023/07/15 19:17:28;;;;;;;8.63;2.25;;;;;;;31.38;33.29;99000.78;4898215;29;20067;-76
2023/07/15 19:19:53;;;;;;;4.97;2.20;;;;;;;31.33;33.50;98989.94;4926681;28;20052;-77
2023/07/15 19:22:19;;;;;;;4.38;2.03;;;;;;;31.31;33.06;99003.66;4890625;29;20075;-78
2023/07/15 19:24:44;;;;;;;4.97;1.95;;;;;;;31.23;33.76;99009.44;4917747;29;20036;-78
2023/07/15 19:27:10;;;;;;;6.47;1.80;;;;;;;31.20;34.33;99007.25;4932944;29;20042;-88
2023/07/15 19:29:35;;;;;;;5.28;1.90;;;;;;;31.16;33.97;99006.91;4905214;29;20023;-78
2023/07/15 19:32:02;;;;;;;5.65;2.00;;;;;;;31.09;34.19;99017.06;4931846;29;20078;-78
2023/07/15 19:34:27;;;;;;;5.20;2.22;;;;;;;31.03;34.59;99018.84;4901959;29;20071;-77
2023/07/15 19:36:53;;;;;;;3.97;2.20;;;;;;;30.97;34.41;99025.22;4913613;29;20075;-85
2023/07/15 19:39:18;;;;;;;7.18;2.00;;;;;;;30.97;35.03;99032.50;4905683;29;20040;-84
2023/07/15 19:41:44;;;;;;;6.22;2.00;;;;;;;30.98;34.66;99028.72;4922997;29;20510;-80
2023/07/15 19:44:12;;;;;;;6.57;1.67;;;;;;;30.92;34.41;99035.06;4938524;29;20043;-87
2023/07/15 19:46:38;;;;;;;6.85;2.00;;;;;;;30.87;35.83;99029.56;4935100;29;20439;-80
2023/07/15 19:49:03;;;;;;;4.65;2.05;;;;;;;30.85;36.17;99027.13;4890350;29;20024;-77
2023/07/15 19:51:29;;;;;;;7.45;1.90;;;;;;;30.81;36.15;99024.09;4928129;29;20039;-81
2023/07/15 19:53:54;;;;;;;6.32;1.80;;;;;;;30.78;36.16;99024.59;4924258;29;20031;-81
2023/07/15 19:56:20;;;;;;;9.93;1.92;;;;;;;30.65;36.50;99025.72;4936889;29;20043;-76
2023/07/15 19:58:45;;;;;;;5.57;1.80;;;;;;;30.61;36.82;99023.72;4888437;29;20478;-77
2023/07/15 20:01:11;;;;;;;5.20;1.85;;;;;;;30.60;36.86;99031.00;4902587;29;20092;-76
2023/07/15 20:03:36;;;;;;;3.78;1.80;;;;;;;30.61;37.16;99029.94;4937847;29;20031;-79
2023/07/15 20:06:02;;;;;;;4.95;1.92;;;;;;;30.60;37.23;99030.16;4909429;29;20044;-79
2023/07/15 20:08:27;;;;;;;3.78;1.75;;;;;;;30.55;37.00;99027.38;4919110;29;20036;-79
2023/07/15 20:10:53;;;;;;;3.67;1.80;;;;;;;30.55;37.10;99030.88;4903252;29;20082;-81
2023/07/15 20:13:18;;;;;;;2.97;1.83;;;;;;;30.47;37.42;99021.34;4908364;29;20039;-77
2023/07/15 20:15:44;;;;;;;3.92;1.83;;;;;;;30.46;37.35;99025.09;4904144;29;20502;-79
2023/07/15 20:18:09;;;;;;;4.13;1.63;;;;;;;30.40;37.66;99020.66;4903708;29;20044;-79
2023/07/15 20:20:35;;;;;;;6.80;2.00;;;;;;;30.36;37.85;99015.97;4888312;29;20035;-77
2023/07/15 20:23:00;;;;;;;7.30;2.10;;;;;;;30.35;37.49;99012.47;4903288;29;20027;-81
2023/07/15 20:25:26;;;;;;;4.68;1.80;;;;;;;30.41;37.97;99022.31;4887947;29;20036;-78
2023/07/15 20:27:51;;;;;;;5.53;1.80;;;;;;;30.41;37.77;99022.31;4903339;29;20102;-78
2023/07/15 20:30:17;;;;;;;8.32;2.10;;;;;;;30.43;37.71;99025.56;4904856;29;20059;-77
2023/07/15 20:32:42;;;;;;;4.22;1.73;;;;;;;30.43;37.92;99027.44;4903924;29;20404;-78
2023/07/15 20:35:08;;;;;;;5.70;1.90;;;;;;;30.41;38.24;99038.47;4903306;29;20114;-78
2023/07/15 20:37:34;;;;;;;3.53;1.73;;;;;;;30.37;38.37;99041.84;4936249;29;20035;-79
2023/07/15 20:39:59;;;;;;;6.03;2.03;;;;;;;30.40;38.14;99044.91;4887969;29;20039;-79
2023/07/15 20:42:25;;;;;;;4.43;2.15;;;;;;;30.41;38.52;99049.22;4903167;29;20130;-79
2023/07/15 20:44:50;;;;;;;3.60;2.03;;;;;;;30.36;38.18;99059.03;4918940;29;20081;-78
2023/07/15 20:47:17;;;;;;;7.53;2.65;;;;;;;30.35;38.19;99054.69;4919080;29;20032;-78
2023/07/15 20:49:43;;;;;;;4.05;2.08;;;;;;;30.41;38.32;99051.09;4886732;29;20118;-77
2023/07/15 20:52:09;;;;;;;3.75;1.80;;;;;;;30.41;38.60;99049.22;4918287;29;20442;-79
2023/07/15 20:54:34;;;;;;;7.40;1.90;;;;;;;30.43;38.52;99051.69;4921437;29;20118;-75
2023/07/15 20:57:00;;;;;;;16.75;2.65;;;;;;;30.33;38.99;99046.88;4938986;29;20071;-77
2023/07/15 20:59:25;;;;;;;9.23;1.98;;;;;;;30.35;38.77;99042.06;4938127;29;20059;-75
2023/07/15 21:01:52;;;;;;;4.43;2.10;;;;;;;30.36;38.59;99045.56;4938146;29;20059;-76
2023/07/15 21:04:18;;;;;;;6.15;2.03;;;;;;;30.41;38.40;99051.09;4938077;29;20039;-75
2023/07/15 21:06:43;;;;;;;4.50;1.73;;;;;;;30.38;38.60;99046.16;4921507;29;20113;-76
2023/07/15 21:09:09;;;;;;;7.47;2.20;;;;;;;30.47;40.01;99056.34;4922712;29;20035;-77
2023/07/15 21:11:34;;;;;;;5.82;1.90;;;;;;;30.51;39.11;99056.69;4937214;29;20034;-77
2023/07/15 21:14:00;;;;;;;3.92;1.80;;;;;;;30.55;38.83;99060.53;4935024;29;20043;-76
2023/07/15 21:16:25;;;;;;;5.97;1.90;;;;;;;30.58;38.87;99061.94;4920281;29;20023;-75
2023/07/15 21:18:51;;;;;;;9.52;1.95;;;;;;;30.61;38.93;99056.06;4905033;29;20470;-76
2023/07/15 21:21:17;;;;;;;7.55;2.10;;;;;;;30.63;38.55;99059.31;4949583;29;20035;-76
2023/07/15 21:23:42;;;;;;;4.78;1.95;;;;;;;30.63;38.58;99054.78;4940620;29;20131;-77
2023/07/15 21:26:08;;;;;;;4.50;2.00;;;;;;;30.63;38.71;99054.78;4921215;29;20526;-78
2023/07/15 21:28:39;;;;;;;4.38;2.08;;;;;;;30.67;38.48;99068.56;4918897;29;20039;-77
2023/07/15 21:31:04;;;;;;;3.95;2.20;;;;;;;30.69;38.64;99065.63;4903381;29;20403;-76
2023/07/15 21:33:30;;;;;;;7.65;2.00;;;;;;;30.69;38.85;99058.38;4934188;29;20135;-76
2023/07/15 21:35:55;;;;;;;5.60;1.77;;;;;;;30.69;38.85;99062.94;4934574;29;20059;-76
2023/07/15 21:38:21;;;;;;;5.78;1.80;;;;;;;30.67;38.64;99060.50;4918802;29;20031;-76
2023/07/15 21:40:46;;;;;;;5.93;1.80;;;;;;;30.67;38.42;99061.28;4919100;29;20128;-77
2023/07/15 21:43:15;;;;;;;4.93;2.08;;;;;;;30.70;38.33;99064.59;4918403;29;20032;-78
2023/07/15 21:45:41;;;;;;;4.90;2.00;;;;;;;30.67;38.83;99064.00;4902782;29;20067;-77
2023/07/15 21:48:07;;;;;;;4.97;1.98;;;;;;;30.70;38.45;99070.78;4918949;29;20067;-77
2023/07/15 21:50:32;;;;;;;4.88;1.88;;;;;;;30.70;38.26;99070.78;4918875;29;20119;-78
2023/07/15 21:52:58;;;;;;;3.97;1.90;;;;;;;30.70;38.20;99070.78;4935185;29;20027;-77
2023/07/15 21:55:24;;;;;;;2.40;1.83;;;;;;;30.67;38.48;99058.59;4921120;29;20491;-78
2023/07/15 21:57:49;;;;;;;4.35;1.77;;;;;;;30.66;38.24;99064.22;4943221;29;20050;-78
2023/07/15 22:00:15;;;;;;;4.70;1.92;;;;;;;30.68;38.35;99064.81;4923493;29;20403;-78
2023/07/15 22:02:41;;;;;;;8.77;2.00;;;;;;;30.68;38.88;99064.81;4917031;29;20051;-75
2023/07/15 22:05:08;;;;;;;5.07;1.92;;;;;;;30.67;38.38;99066.69;4918423;29;20566;-76
2023/07/15 22:07:34;;;;;;;5.80;2.00;;;;;;;30.68;38.28;99064.81;4934115;29;20032;-76
2023/07/15 22:10:00;;;;;;;3.17;1.88;;;;;;;30.65;38.64;99063.41;4918061;29;20058;-76
2023/07/15 22:12:25;;;;;;;7.82;2.35;;;;;;;30.66;38.46;99058.84;4918906;29;20439;-76
2023/07/15 22:14:51;;;;;;;4.30;2.25;;;;;;;30.64;38.62;99061.78;4918376;29;20055;-76
2023/07/15 22:17:16;;;;;;;5.43;2.00;;;;;;;30.64;38.35;99060.97;4918173;29;20071;-76
2023/07/15 22:19:42;;;;;;;6.43;2.15;;;;;;;30.64;38.37;99060.97;4918959;29;20074;-76
2023/07/15 22:22:07;;;;;;;4.20;2.03;;;;;;;30.59;38.26;99056.31;4934309;29;20423;-76
2023/07/15 22:24:32;;;;;;;4.63;2.10;;;;;;;30.58;38.24;99061.94;4934126;29;20068;-76
2023/07/15 22:26:58;;;;;;;6.15;2.28;;;;;;;30.59;38.60;99063.56;4917564;29;20167;-76
2023/07/15 22:29:23;;;;;;;3.65;2.20;;;;;;;30.57;38.53;99071.06;4933155;29;20065;-76
2023/07/15 22:31:49;;;;;;;6.05;2.33;;;;;;;30.55;38.58;99067.78;4933228;29;20052;-76
2023/07/15 22:34:14;;;;;;;5.35;2.20;;;;;;;30.54;38.52;99079.66;4934546;29;20047;-76
2023/07/15 22:36:40;;;;;;;6.55;2.30;;;;;;;30.54;38.51;99074.25;4917710;29;20495;-76
2023/07/15 22:39:05;;;;;;;3.67;2.10;;;;;;;30.54;38.84;99072.38;4933991;29;20034;-76
2023/07/15 22:41:31;;;;;;;4.95;2.03;;;;;;;30.53;38.49;99067.22;4934932;29;20042;-75
2023/07/15 22:43:56;;;;;;;3.30;2.20;;;;;;;30.51;38.49;99066.66;4933800;29;20059;-76
2023/07/15 22:46:22;;;;;;;4.72;2.20;;;;;;;30.48;38.62;99063.38;4933920;29;20395;-76
2023/07/15 22:48:47;;;;;;;3.10;2.10;;;;;;;30.48;38.46;99059.84;4934880;29;20087;-76
2023/07/15 22:51:13;;;;;;;2.53;1.90;;;;;;;30.47;38.50;99058.22;4935527;29;20471;-76
2023/07/15 22:53:38;;;;;;;4.22;1.75;;;;;;;30.46;38.29;99056.59;4918171;29;20023;-75
2023/07/15 22:56:04;;;;;;;2.92;2.05;;;;;;;30.41;38.45;99054.63;4907824;29;20046;-76
2023/07/15 22:58:29;;;;;;;4.40;2.00;;;;;;;30.43;38.52;99052.50;4940761;29;20027;-76
2023/07/15 23:00:55;;;;;;;6.63;2.15;;;;;;;30.41;38.85;99053.78;4940980;29;20466;-76
2023/07/15 23:03:21;;;;;;;6.93;2.20;;;;;;;30.40;38.80;99046.78;4920122;29;20067;-76
2023/07/15 23:05:46;;;;;;;3.72;1.55;;;;;;;30.40;38.69;99044.09;4921362;29;20062;-76
2023/07/15 23:08:12;;;;;;;3.63;2.17;;;;;;;30.35;38.69;99033.16;4906196;29;20035;-76
2023/07/15 23:10:39;;;;;;;4.40;1.92;;;;;;;30.37;38.30;99033.75;4921404;29;20055;-76
2023/07/15 23:13:05;;;;;;;4.18;1.98;;;;;;;30.30;38.59;99026.63;4938123;29;20062;-76
2023/07/15 23:15:30;;;;;;;3.38;1.77;;;;;;;30.32;38.56;99034.47;4938564;29;20073;-75
2023/07/15 23:17:56;;;;;;;4.70;2.08;;;;;;;30.31;38.79;99033.66;4940359;29;20442;-76
2023/07/15 23:20:21;;;;;;;8.90;1.90;;;;;;;30.26;39.09;99030.84;4957260;29;20031;-76
2023/07/15 23:22:46;;;;;;;5.35;1.90;;;;;;;30.29;38.47;99034.94;4925728;29;20031;-76
2023/07/15 23:25:12;;;;;;;6.15;1.90;;;;;;;30.26;38.98;99047.00;4920548;29;20051;-75
2023/07/15 23:27:37;;;;;;;2.22;1.83;;;;;;;30.23;38.52;99028.63;4905597;29;20031;-76
2023/07/15 23:30:04;;;;;;;4.75;1.92;;;;;;;30.21;38.85;99027.25;4938099;29;20070;-75
2023/07/15 23:32:30;;;;;;;3.05;1.80;;;;;;;30.22;38.87;99034.25;4903829;29;20524;-74
2023/07/15 23:34:58;;;;;;;5.40;2.10;;;;;;;30.19;38.61;99030.19;4937812;29;20067;-75
2023/07/15 23:37:23;;;;;;;3.90;1.90;;;;;;;30.18;39.18;99036.63;4921373;29;20034;-75
2023/07/15 23:39:51;;;;;;;3.30;1.80;;;;;;;30.17;38.50;99032.28;4933764;29;20204;-75
2023/07/15 23:42:17;;;;;;;3.10;1.90;;;;;;;30.13;39.04;99029.25;4923133;29;20071;-75
2023/07/15 23:44:42;;;;;;;3.55;1.60;;;;;;;30.13;39.14;99023.88;4939908;29;20489;-76
2023/07/15 23:47:08;;;;;;;3.40;1.70;;;;;;;30.11;39.08;99023.28;4939788;29;20046;-75
2023/07/15 23:49:33;;;;;;;6.80;2.00;;;;;;;30.10;39.14;99027.03;4939620;29;20043;-75
2023/07/15 23:51:59;;;;;;;2.95;1.90;;;;;;;30.05;39.16;99018.84;4939772;29;20039;-75
2023/07/15 23:54:24;;;;;;;2.92;1.80;;;;;;;30.08;38.93;99031.03;4940183;29;20046;-75
2023/07/15 23:56:50;;;;;;;2.78;1.52;;;;;;;30.06;38.86;99031.28;4940429;29;20466;-75
2023/07/15 23:59:16;;;;;;;2.40;1.75;;;;;;;30.02;38.98;99022.03;4939720;29;20042;-75
